Terminal Aerodrome Forecast
Issued by NWS

Home | Current Version | Previous Version | Text Only | Print | Product List | Glossary On
Versions: 1 2 3 4 5 6 7 8 9 10 11 12 13 14 15 16
000
FTUS45 KBOU 091140
TAFAPA
TAF
KAPA 091140Z 0912/1012 23007KT P6SM FEW220
     FM091400 18006KT P6SM FEW220
     FM091900 05007KT P6SM SCT220
     FM092300 13007KT P6SM FEW220
     FM100300 18007KT P6SM SKC=

USA.gov is the U.S. government's official web portal to all federal, state and local government web resources and services.